createdAt,value
2022-12-18T00:01:34.360Z,22.88
2022-12-18T00:06:03.249Z,22.35
2022-12-18T00:08:10.808Z,24.13
2022-12-18T00:10:28.857Z,25.38
2022-12-18T00:12:42.787Z,24.75
2022-12-18T00:14:52.194Z,22.92
2022-12-18T00:17:06.663Z,24.27
2022-12-18T00:19:12.904Z,29.08
2022-12-18T00:21:26.137Z,22.90
2022-12-18T00:23:37.029Z,25.58
2022-12-18T00:25:52.307Z,27.13
2022-12-18T00:27:58.264Z,27.85
2022-12-18T00:30:03.015Z,29.33
2022-12-18T00:32:07.773Z,27.42
2022-12-18T00:34:13.871Z,26.38
2022-12-18T00:36:20.462Z,27.40
2022-12-18T00:38:25.166Z,27.50
2022-12-18T00:40:29.797Z,26.48
2022-12-18T00:42:51.307Z,25.77
2022-12-18T00:45:01.183Z,26.52
2022-12-18T00:47:23.002Z,27.63
2022-12-18T00:49:35.102Z,21.33
2022-12-18T00:51:42.816Z,29.77
2022-12-18T00:54:00.737Z,21.75
2022-12-18T00:56:06.965Z,27.25
2022-12-18T00:58:25.084Z,28.08
2022-12-18T01:00:35.149Z,26.08
2022-12-18T01:02:58.454Z,27.30
2022-12-18T01:07:25.328Z,27.15
2022-12-18T01:09:30.023Z,26.63
2022-12-18T01:11:34.979Z,30.55
2022-12-18T01:13:42.496Z,27.10
2022-12-18T01:15:52.589Z,22.90
2022-12-18T01:18:09.939Z,24.52
2022-12-18T01:20:23.660Z,22.80
2022-12-18T01:22:33.157Z,22.83
2022-12-18T01:24:44.627Z,28.00
2022-12-18T01:26:52.432Z,27.67
2022-12-18T01:29:05.593Z,28.40
2022-12-18T01:31:20.167Z,27.15
2022-12-18T01:33:34.512Z,28.90
2022-12-18T01:35:47.180Z,27.05
2022-12-18T01:38:04.189Z,30.17
2022-12-18T01:40:22.215Z,27.00
2022-12-18T01:42:34.229Z,28.70
2022-12-18T01:45:29.764Z,27.15
2022-12-18T01:47:50.312Z,27.95
2022-12-18T01:49:59.061Z,25.00
2022-12-18T01:52:04.078Z,24.55
2022-12-18T01:54:08.806Z,28.77
2022-12-18T01:56:17.015Z,22.25
2022-12-18T01:58:22.016Z,27.38
2022-12-18T02:00:27.904Z,23.38
2022-12-18T02:02:33.413Z,28.73
2022-12-18T02:04:43.918Z,25.35
2022-12-18T02:06:55.153Z,26.58
2022-12-18T02:09:07.759Z,22.85
2022-12-18T02:11:28.349Z,25.38
2022-12-18T02:13:40.679Z,23.42
2022-12-18T02:15:59.242Z,29.13
2022-12-18T02:18:17.008Z,27.95
2022-12-18T02:20:29.793Z,26.55
2022-12-18T02:22:42.176Z,28.15
2022-12-18T02:25:00.698Z,25.73
2022-12-18T02:27:13.964Z,28.85
2022-12-18T02:29:30.461Z,27.42
2022-12-18T02:31:45.332Z,26.67
2022-12-18T02:34:01.293Z,29.08
2022-12-18T02:36:15.997Z,24.88
2022-12-18T02:38:37.523Z,24.73
2022-12-18T02:40:50.613Z,27.60
2022-12-18T02:45:07.473Z,23.90
2022-12-18T02:47:14.280Z,26.92
2022-12-18T02:49:28.696Z,26.05
2022-12-18T02:51:37.152Z,22.58
2022-12-18T02:53:47.650Z,24.75
2022-12-18T02:56:03.208Z,20.45
2022-12-18T02:58:18.297Z,22.17
2022-12-18T03:00:25.727Z,20.13
2022-12-18T03:02:36.430Z,17.70
2022-12-18T03:04:47.129Z,23.50
2022-12-18T03:06:58.498Z,20.70
2022-12-18T03:09:18.383Z,22.02
2022-12-18T03:11:50.435Z,23.35
2022-12-18T03:14:07.031Z,19.55
2022-12-18T03:16:24.968Z,22.60
2022-12-18T03:18:36.695Z,17.48
2022-12-18T03:20:56.147Z,22.67
2022-12-18T03:23:07.506Z,24.48
2022-12-18T03:25:20.057Z,14.55
2022-12-18T03:27:28.124Z,25.50
2022-12-18T03:29:51.176Z,20.55
2022-12-18T03:32:04.866Z,23.45
2022-12-18T03:34:15.907Z,22.92
2022-12-18T03:36:28.516Z,19.55
2022-12-18T03:40:48.415Z,18.67
2022-12-18T03:42:56.391Z,21.08
2022-12-18T03:45:13.028Z,19.83
2022-12-18T03:47:24.505Z,25.02
2022-12-18T03:49:34.860Z,19.17
2022-12-18T03:51:44.834Z,21.00
2022-12-18T03:53:57.240Z,22.85
2022-12-18T03:56:03.450Z,22.08
2022-12-18T03:58:08.991Z,19.80
2022-12-18T04:00:18.026Z,23.33
2022-12-18T04:02:23.763Z,26.63
2022-12-18T04:04:43.261Z,24.63
2022-12-18T04:07:04.459Z,18.02
2022-12-18T04:09:13.413Z,24.65
2022-12-18T04:11:26.012Z,23.20
2022-12-18T04:13:38.599Z,22.35
2022-12-18T04:15:54.553Z,21.58
2022-12-18T04:18:01.916Z,21.27
2022-12-18T04:20:07.472Z,23.25
2022-12-18T04:22:27.056Z,23.05
2022-12-18T04:24:34.102Z,20.65
2022-12-18T04:26:48.312Z,20.88
2022-12-18T04:29:07.802Z,19.05
2022-12-18T04:31:26.291Z,23.17
2022-12-18T04:33:30.982Z,22.33
2022-12-18T04:35:35.549Z,23.25
2022-12-18T04:37:40.315Z,21.45
2022-12-18T04:39:45.395Z,22.20
2022-12-18T04:41:58.681Z,18.58
2022-12-18T04:44:07.128Z,18.30
2022-12-18T04:46:24.982Z,19.33
2022-12-18T04:48:34.043Z,22.67
2022-12-18T04:50:44.833Z,19.10
2022-12-18T04:52:57.835Z,17.73
2022-12-18T04:57:25.097Z,18.70
2022-12-18T04:59:30.732Z,19.50
2022-12-18T05:01:35.556Z,20.20
2022-12-18T05:03:43.678Z,18.92
2022-12-18T05:05:48.855Z,21.25
2022-12-18T05:07:54.132Z,20.80
2022-12-18T05:09:58.969Z,18.17
2022-12-18T05:12:10.302Z,18.85
2022-12-18T05:14:26.060Z,20.20
2022-12-18T05:16:32.957Z,20.77
2022-12-18T05:18:44.309Z,21.50
2022-12-18T05:20:54.262Z,16.75
2022-12-18T05:23:14.954Z,18.88
2022-12-18T05:25:20.801Z,20.45
2022-12-18T05:27:25.507Z,18.92
2022-12-18T05:29:30.552Z,18.55
2022-12-18T05:31:39.485Z,22.63
2022-12-18T05:33:44.642Z,18.40
2022-12-18T05:35:57.202Z,19.35
2022-12-18T05:38:11.521Z,20.58
2022-12-18T05:40:17.330Z,19.70
2022-12-18T05:42:22.081Z,19.55
2022-12-18T05:44:26.921Z,21.65
2022-12-18T05:46:31.967Z,17.08
2022-12-18T05:48:39.020Z,18.70
2022-12-18T05:50:47.630Z,22.00
2022-12-18T05:52:59.682Z,20.45
2022-12-18T05:55:04.584Z,20.67
2022-12-18T05:57:25.677Z,19.13
2022-12-18T05:59:43.556Z,17.40
2022-12-18T06:01:59.537Z,19.45
2022-12-18T06:04:12.770Z,20.67
2022-12-18T06:06:25.969Z,18.15
2022-12-18T06:08:41.528Z,17.55
2022-12-18T06:10:59.055Z,18.60
2022-12-18T06:13:08.793Z,16.77
2022-12-18T06:15:13.852Z,17.35
2022-12-18T06:17:18.910Z,18.92
2022-12-18T06:19:24.479Z,16.75
2022-12-18T06:21:29.500Z,15.73
2022-12-18T06:23:37.417Z,17.38
2022-12-18T06:25:42.974Z,16.75
2022-12-18T06:27:47.775Z,19.33
2022-12-18T06:29:52.525Z,19.10
2022-12-18T06:31:57.396Z,10.05
2022-12-18T06:34:02.213Z,19.25
2022-12-18T06:36:10.532Z,13.43
2022-12-18T06:38:15.280Z,14.15
2022-12-18T06:40:22.832Z,12.15
2022-12-18T06:42:27.554Z,15.82
2022-12-18T06:44:32.231Z,14.48
2022-12-18T06:46:36.925Z,14.90
2022-12-18T06:48:41.826Z,16.77
2022-12-18T06:50:46.387Z,14.50
2022-12-18T06:52:51.099Z,13.40
2022-12-18T06:55:11.009Z,13.43
2022-12-18T06:57:18.169Z,18.50
2022-12-18T06:59:23.205Z,16.33
2022-12-18T07:01:29.480Z,13.57
2022-12-18T07:03:34.615Z,15.43
2022-12-18T07:05:43.766Z,16.40
2022-12-18T07:07:54.326Z,15.30
2022-12-18T07:10:15.305Z,13.50
2022-12-18T07:12:23.834Z,17.50
2022-12-18T07:14:28.859Z,15.00
2022-12-18T07:16:34.984Z,11.63
2022-12-18T07:18:52.845Z,10.57
2022-12-18T07:21:00.125Z,11.20
2022-12-18T07:23:12.181Z,10.48
2022-12-18T07:25:17.057Z,8.67
2022-12-18T07:27:24.510Z,11.60
2022-12-18T07:29:29.849Z,13.35
2022-12-18T07:31:34.784Z,14.95
2022-12-18T07:33:45.671Z,10.10
2022-12-18T07:35:54.084Z,10.55
2022-12-18T07:38:07.939Z,8.48
2022-12-18T07:40:14.447Z,15.20
2022-12-18T07:42:31.674Z,14.85
2022-12-18T07:44:44.365Z,13.02
2022-12-18T07:46:49.058Z,11.05
2022-12-18T07:48:53.696Z,11.10
2022-12-18T07:51:03.947Z,13.52
2022-12-18T07:53:08.582Z,13.40
2022-12-18T07:55:13.168Z,14.90
2022-12-18T07:57:41.853Z,10.18
2022-12-18T07:59:46.432Z,13.10
2022-12-18T08:01:51.335Z,10.77
2022-12-18T08:03:56.061Z,14.48
2022-12-18T08:06:03.349Z,15.20
2022-12-18T08:08:08.392Z,11.88
2022-12-18T08:10:13.420Z,13.50
2022-12-18T08:12:18.000Z,15.18
2022-12-18T08:14:22.624Z,9.88
2022-12-18T08:16:30.024Z,12.23
2022-12-18T08:18:40.946Z,12.23
2022-12-18T08:20:45.584Z,13.02
2022-12-18T08:22:50.257Z,12.52
2022-12-18T08:24:54.981Z,9.70
2022-12-18T08:27:21.217Z,16.05
2022-12-18T08:29:24.685Z,10.88
2022-12-18T08:31:34.104Z,13.43
2022-12-18T08:33:39.465Z,12.40
2022-12-18T08:35:46.115Z,11.80
2022-12-18T08:37:51.095Z,11.32
2022-12-18T08:39:55.929Z,11.90
2022-12-18T08:42:13.112Z,11.30
2022-12-18T08:44:45.020Z,10.23
2022-12-18T08:46:52.285Z,15.70
2022-12-18T08:48:57.690Z,13.07
2022-12-18T08:51:03.353Z,12.85
2022-12-18T08:53:08.197Z,14.52
2022-12-18T08:55:13.311Z,14.27
2022-12-18T08:57:18.132Z,13.02
2022-12-18T08:59:24.363Z,12.40
2022-12-18T09:01:29.569Z,15.90
2022-12-18T09:03:37.514Z,15.13
2022-12-18T09:05:42.540Z,13.57
2022-12-18T09:07:47.226Z,13.95
2022-12-18T09:09:59.698Z,13.15
2022-12-18T09:12:05.060Z,13.50
2022-12-18T09:14:11.212Z,13.00
2022-12-18T09:16:16.070Z,15.45
2022-12-18T09:18:22.436Z,14.10
2022-12-18T09:20:31.033Z,12.60
2022-12-18T09:22:35.873Z,12.48
2022-12-18T09:24:40.547Z,13.00
2022-12-18T09:26:46.926Z,14.13
2022-12-18T09:28:52.220Z,15.07
2022-12-18T09:31:00.338Z,9.20
2022-12-18T09:33:05.116Z,10.55
2022-12-18T09:35:12.869Z,10.85
2022-12-18T09:37:20.365Z,15.20
2022-12-18T09:39:25.161Z,13.10
2022-12-18T09:41:43.569Z,12.02
2022-12-18T09:43:50.930Z,13.55
2022-12-18T09:46:04.055Z,11.52
2022-12-18T09:48:10.033Z,14.18
2022-12-18T09:50:25.328Z,10.95
2022-12-18T09:52:41.717Z,11.75
2022-12-18T09:54:59.769Z,12.18
2022-12-18T09:57:04.568Z,12.18
2022-12-18T09:59:09.469Z,7.60
2022-12-18T10:01:14.986Z,11.48
2022-12-18T10:03:20.043Z,11.35
2022-12-18T10:05:44.591Z,14.93
2022-12-18T10:08:14.515Z,13.07
2022-12-18T10:10:29.862Z,10.98
2022-12-18T10:12:39.403Z,12.63
2022-12-18T10:14:49.198Z,13.75
2022-12-18T10:17:01.957Z,12.73
2022-12-18T10:19:18.037Z,13.77
2022-12-18T10:21:25.704Z,10.70
2022-12-18T10:23:37.120Z,12.60
2022-12-18T10:25:59.531Z,13.57
2022-12-18T10:28:18.414Z,11.02
2022-12-18T10:30:24.850Z,13.20
2022-12-18T10:32:30.795Z,14.52
2022-12-18T10:34:46.914Z,9.30
2022-12-18T10:36:51.955Z,14.05
2022-12-18T10:39:19.921Z,14.25
2022-12-18T10:41:31.917Z,9.55
2022-12-18T10:43:37.646Z,9.10
2022-12-18T10:45:42.731Z,14.98
2022-12-18T10:47:50.596Z,14.52
2022-12-18T10:49:57.049Z,16.63
2022-12-18T10:52:10.161Z,14.30
2022-12-18T10:54:22.667Z,15.25
2022-12-18T10:56:29.450Z,11.75
2022-12-18T10:58:36.108Z,14.43
2022-12-18T11:00:41.396Z,12.50
2022-12-18T11:02:46.301Z,12.52
2022-12-18T11:04:54.929Z,14.20
2022-12-18T11:07:01.936Z,15.10
2022-12-18T11:09:14.479Z,14.88
2022-12-18T11:11:24.734Z,13.93
2022-12-18T11:13:31.645Z,13.55
2022-12-18T11:15:37.302Z,15.70
2022-12-18T11:17:43.015Z,14.35
2022-12-18T11:19:47.804Z,14.90
2022-12-18T11:21:52.895Z,15.98
2022-12-18T11:23:59.072Z,12.30
2022-12-18T11:26:11.757Z,15.05
2022-12-18T11:32:54.442Z,14.17
2022-12-18T11:35:04.126Z,12.13
2022-12-18T11:37:14.284Z,13.55
2022-12-18T11:39:24.125Z,12.60
2022-12-18T11:41:53.563Z,15.57
2022-12-18T11:44:04.747Z,15.32
2022-12-18T11:46:19.421Z,14.05
2022-12-18T11:48:27.813Z,15.60
2022-12-18T11:50:38.353Z,13.93
2022-12-18T11:52:44.721Z,13.13
2022-12-18T11:54:49.415Z,13.38
2022-12-18T11:56:58.043Z,14.95
2022-12-18T11:59:14.262Z,14.13
2022-12-18T12:01:29.937Z,14.38
2022-12-18T12:03:50.058Z,15.85
2022-12-18T12:06:11.588Z,16.17
2022-12-18T12:08:20.336Z,16.77
2022-12-18T12:10:38.694Z,15.55
2022-12-18T12:13:03.191Z,15.05
2022-12-18T12:15:22.520Z,14.90
2022-12-18T12:17:33.948Z,14.35
2022-12-18T12:19:44.994Z,8.75
2022-12-18T12:21:53.879Z,14.75
2022-12-18T12:24:18.560Z,15.73
2022-12-18T12:26:37.793Z,13.30
2022-12-18T12:29:30.633Z,12.30
2022-12-18T12:32:12.632Z,13.32
2022-12-18T12:34:26.903Z,11.93
2022-12-18T12:36:38.383Z,14.60
2022-12-18T12:38:51.570Z,16.33
2022-12-18T12:41:03.153Z,16.30
2022-12-18T12:43:14.020Z,12.63
2022-12-18T12:45:23.247Z,15.40
2022-12-18T12:47:39.283Z,15.02
2022-12-18T12:49:48.713Z,17.95
2022-12-18T12:52:01.663Z,19.13
2022-12-18T12:54:16.837Z,15.10
2022-12-18T12:56:27.689Z,14.68
2022-12-18T12:58:40.944Z,15.23
2022-12-18T13:00:53.609Z,16.40
2022-12-18T13:03:07.866Z,16.73
2022-12-18T13:05:20.728Z,18.33
2022-12-18T13:07:30.936Z,14.88
2022-12-18T13:09:37.279Z,15.38
2022-12-18T13:12:00.247Z,14.77
2022-12-18T13:14:05.302Z,16.13
2022-12-18T13:16:11.784Z,15.25
2022-12-18T13:18:23.571Z,14.15
2022-12-18T13:20:53.782Z,15.60
2022-12-18T13:23:40.081Z,15.75
2022-12-18T13:25:58.743Z,15.90
2022-12-18T13:28:10.710Z,17.20
2022-12-18T13:31:03.635Z,15.60
2022-12-18T13:34:25.611Z,17.50
2022-12-18T13:36:55.919Z,17.17
2022-12-18T13:39:34.240Z,16.58
2022-12-18T13:41:40.320Z,16.88
2022-12-18T13:43:47.425Z,12.20
2022-12-18T13:45:54.348Z,16.25
2022-12-18T13:48:00.362Z,19.15
2022-12-18T13:50:09.127Z,15.25
2022-12-18T13:52:27.690Z,14.75
2022-12-18T13:54:43.980Z,15.98
2022-12-18T13:56:50.424Z,18.35
2022-12-18T13:59:17.628Z,20.17
2022-12-18T14:01:26.857Z,18.20
2022-12-18T14:03:32.962Z,15.80
2022-12-18T14:05:43.423Z,22.08
2022-12-18T14:11:19.460Z,18.88
2022-12-18T14:14:33.534Z,19.23
2022-12-18T14:16:38.669Z,18.60
2022-12-18T14:18:49.420Z,25.27
2022-12-18T14:20:55.502Z,20.08
2022-12-18T14:23:03.722Z,15.52
2022-12-18T14:25:26.806Z,12.27
2022-12-18T14:27:31.775Z,20.02
2022-12-18T14:29:38.814Z,19.23
2022-12-18T14:31:43.400Z,18.77
2022-12-18T14:33:48.060Z,13.68
2022-12-18T14:36:30.507Z,16.63
2022-12-18T14:38:47.549Z,17.38
2022-12-18T14:40:56.612Z,16.25
2022-12-18T14:43:10.124Z,14.75
2022-12-18T14:46:12.444Z,15.65
2022-12-18T14:48:41.733Z,15.40
2022-12-18T14:51:10.570Z,12.93
2022-12-18T14:53:32.752Z,20.08
2022-12-18T14:55:55.313Z,18.60
2022-12-18T15:01:10.644Z,19.73
2022-12-18T15:04:07.177Z,21.60
2022-12-18T15:06:40.973Z,19.08
2022-12-18T15:08:46.511Z,20.35
2022-12-18T15:10:53.702Z,22.00
2022-12-18T15:13:12.603Z,21.90
2022-12-18T15:15:50.959Z,17.33
2022-12-18T15:18:55.465Z,12.80
2022-12-18T15:26:49.495Z,16.13
2022-12-18T15:29:15.891Z,16.95
2022-12-18T15:32:00.007Z,18.38
2022-12-18T15:34:40.491Z,17.30
2022-12-18T15:36:45.994Z,17.52
2022-12-18T15:39:24.360Z,16.95
2022-12-18T15:41:45.938Z,19.80
2022-12-18T15:44:20.622Z,11.57
2022-12-18T15:46:27.888Z,19.77
2022-12-18T15:48:32.776Z,18.85
2022-12-18T15:51:01.982Z,16.83
2022-12-18T15:55:47.508Z,16.15
2022-12-18T15:58:02.678Z,15.93
2022-12-18T16:00:15.426Z,15.18
2022-12-18T16:02:24.309Z,18.13
2022-12-18T16:05:05.287Z,16.63
2022-12-18T16:07:23.173Z,13.75
2022-12-18T16:10:02.373Z,14.73
2022-12-18T16:12:08.327Z,14.45
2022-12-18T16:14:21.351Z,16.05
2022-12-18T16:16:29.779Z,15.43
2022-12-18T16:18:36.260Z,15.10
2022-12-18T16:20:42.556Z,16.10
2022-12-18T16:22:48.870Z,19.42
2022-12-18T16:24:54.474Z,13.50
2022-12-18T16:27:00.862Z,16.80
2022-12-18T16:29:05.523Z,16.00
2022-12-18T16:31:39.284Z,16.58
2022-12-18T16:33:46.648Z,15.88
2022-12-18T16:36:15.076Z,16.50
2022-12-18T16:38:19.764Z,15.30
2022-12-18T16:40:24.839Z,13.40
2022-12-18T16:42:29.537Z,14.15
2022-12-18T16:44:34.564Z,17.27
2022-12-18T16:46:40.301Z,16.27
2022-12-18T16:48:47.628Z,14.70
2022-12-18T16:50:52.324Z,18.00
2022-12-18T16:52:57.140Z,14.73
2022-12-18T16:55:01.966Z,15.20
2022-12-18T16:57:07.912Z,15.10
2022-12-18T16:59:14.810Z,17.02
2022-12-18T17:01:20.482Z,14.23
2022-12-18T17:03:25.372Z,16.38
2022-12-18T17:05:32.700Z,16.27
2022-12-18T17:07:41.782Z,16.45
2022-12-18T17:09:46.477Z,14.73
2022-12-18T17:11:51.285Z,14.48
2022-12-18T17:13:56.118Z,15.38
2022-12-18T17:16:06.728Z,14.27
2022-12-18T17:18:11.524Z,15.68
2022-12-18T17:20:16.204Z,16.30
2022-12-18T17:22:24.076Z,15.75
2022-12-18T17:24:34.394Z,16.42
2022-12-18T17:26:40.307Z,18.35
2022-12-18T17:28:45.414Z,14.80
2022-12-18T17:30:50.181Z,17.35
2022-12-18T17:33:42.157Z,17.88
2022-12-18T17:35:47.425Z,13.85
2022-12-18T17:37:55.716Z,17.38
2022-12-18T17:40:00.484Z,16.13
2022-12-18T17:45:05.158Z,16.52
2022-12-18T17:48:00.628Z,15.38
2022-12-18T17:50:10.384Z,19.20
2022-12-18T17:52:15.167Z,18.75
2022-12-18T17:54:22.464Z,17.45
2022-12-18T17:56:28.030Z,17.25
2022-12-18T17:58:34.092Z,16.20
2022-12-18T18:03:41.761Z,15.85
2022-12-18T18:05:47.583Z,16.88
2022-12-18T18:08:34.911Z,18.85
2022-12-18T18:11:48.286Z,17.40
2022-12-18T18:14:04.665Z,15.93
2022-12-18T18:16:10.666Z,19.40
2022-12-18T18:18:15.687Z,16.60
2022-12-18T18:20:22.947Z,18.00
2022-12-18T18:22:27.829Z,17.58
2022-12-18T18:24:33.246Z,17.88
2022-12-18T18:32:40.777Z,16.00
2022-12-18T18:34:46.057Z,19.38
2022-12-18T18:36:50.849Z,21.42
2022-12-18T19:14:48.030Z,18.52
2022-12-18T19:17:11.136Z,17.83
2022-12-18T19:21:54.221Z,17.17
2022-12-18T19:24:42.445Z,20.40
2022-12-18T19:32:49.094Z,18.70
2022-12-18T19:34:53.927Z,19.27
2022-12-18T19:36:59.882Z,19.58
2022-12-18T19:39:05.313Z,19.75
2022-12-18T19:41:10.550Z,18.88
2022-12-18T19:43:15.609Z,21.20
2022-12-18T19:45:23.816Z,17.25
2022-12-18T19:51:20.266Z,19.50
2022-12-18T19:59:45.734Z,19.85
2022-12-18T20:02:41.091Z,18.27
2022-12-18T20:07:42.595Z,19.75
2022-12-18T20:10:57.666Z,14.52
2022-12-18T20:13:47.744Z,21.23
2022-12-18T20:15:53.002Z,17.38
2022-12-18T20:18:00.278Z,20.25
2022-12-18T20:20:05.148Z,21.02
2022-12-18T20:22:10.877Z,17.65
2022-12-18T20:24:15.545Z,20.20
2022-12-18T20:26:20.663Z,19.17
2022-12-18T20:28:26.696Z,19.98
2022-12-18T20:30:31.766Z,18.40
2022-12-18T20:32:37.199Z,20.23
2022-12-18T20:34:44.739Z,18.17
2022-12-18T20:36:51.098Z,20.02
2022-12-18T20:39:02.640Z,20.25
2022-12-18T20:41:20.198Z,20.80
2022-12-18T20:43:31.929Z,19.70
2022-12-18T20:45:40.842Z,17.27
2022-12-18T20:47:55.793Z,21.63
2022-12-18T20:50:07.426Z,21.77
2022-12-18T20:52:17.871Z,21.25
2022-12-18T20:54:31.822Z,22.17
2022-12-18T20:56:46.894Z,20.48
2022-12-18T20:58:54.900Z,22.30
2022-12-18T21:01:07.510Z,20.45
2022-12-18T21:03:16.602Z,22.48
2022-12-18T21:05:32.254Z,17.95
2022-12-18T21:07:38.208Z,22.92
2022-12-18T21:09:43.004Z,21.90
2022-12-18T21:12:00.267Z,16.52
2022-12-18T21:14:06.328Z,22.02
2022-12-18T21:16:11.234Z,22.77
2022-12-18T21:18:16.278Z,23.35
2022-12-18T21:20:24.267Z,18.92
2022-12-18T21:22:29.718Z,24.33
2022-12-18T21:24:34.877Z,21.15
2022-12-18T21:26:45.238Z,22.05
2022-12-18T21:28:51.310Z,23.42
2022-12-18T21:30:56.230Z,24.38
2022-12-18T21:33:01.117Z,23.63
2022-12-18T21:35:05.942Z,24.02
2022-12-18T21:37:13.246Z,21.73
2022-12-18T21:39:18.988Z,22.17
2022-12-18T21:41:42.357Z,23.70
2022-12-18T21:43:59.782Z,21.45
2022-12-18T21:46:04.546Z,22.42
2022-12-18T21:48:09.429Z,21.90
2022-12-18T21:50:14.477Z,17.48
2022-12-18T21:52:31.694Z,24.63
2022-12-18T21:54:37.750Z,25.95
2022-12-18T21:56:47.224Z,22.38
2022-12-18T21:58:56.943Z,26.88
2022-12-18T22:01:02.190Z,23.30
2022-12-18T22:03:18.622Z,26.90
2022-12-18T22:05:23.884Z,26.48
2022-12-18T22:07:31.779Z,22.67
2022-12-18T22:09:36.725Z,20.20
2022-12-18T22:11:41.756Z,26.77
2022-12-18T22:13:47.912Z,21.90
2022-12-18T22:15:52.773Z,26.58
2022-12-18T22:18:00.085Z,26.60
2022-12-18T22:20:05.127Z,23.30
2022-12-18T22:22:10.040Z,23.85
2022-12-18T22:24:19.604Z,26.35
2022-12-18T22:26:27.991Z,22.95
2022-12-18T22:28:46.528Z,25.77
2022-12-18T22:30:59.031Z,27.02
2022-12-18T22:33:04.540Z,23.88
2022-12-18T22:35:27.803Z,25.55
2022-12-18T22:37:32.756Z,23.50
2022-12-18T22:39:40.315Z,23.88
2022-12-18T22:41:45.446Z,25.83
2022-12-18T22:43:50.135Z,23.35
2022-12-18T22:45:55.541Z,18.60
2022-12-18T22:48:00.672Z,25.63
2022-12-18T22:50:05.904Z,26.00
2022-12-18T22:52:12.200Z,24.58
2022-12-18T22:54:18.736Z,26.25
2022-12-18T22:56:26.469Z,24.73
2022-12-18T22:58:31.552Z,23.67
2022-12-18T23:00:36.269Z,26.90
2022-12-18T23:02:41.071Z,21.67
2022-12-18T23:04:45.979Z,25.48
2022-12-18T23:06:50.657Z,26.45
2022-12-18T23:08:56.281Z,22.58
2022-12-18T23:11:01.234Z,26.67
2022-12-18T23:13:08.556Z,27.08
2022-12-18T23:15:13.716Z,27.23
2022-12-18T23:17:21.109Z,25.38
2022-12-18T23:19:26.435Z,25.45
2022-12-18T23:21:31.975Z,27.25
2022-12-18T23:23:38.080Z,27.88
2022-12-18T23:25:42.898Z,25.02
2022-12-18T23:27:47.519Z,27.33
2022-12-18T23:29:54.693Z,27.42
2022-12-18T23:32:00.959Z,25.30
2022-12-18T23:34:06.411Z,27.90
2022-12-18T23:36:13.625Z,27.67
2022-12-18T23:38:18.316Z,32.15
2022-12-18T23:40:23.085Z,25.20
2022-12-18T23:42:27.903Z,26.33
2022-12-18T23:44:32.803Z,29.63
2022-12-18T23:46:40.333Z,24.50
2022-12-18T23:48:45.143Z,25.33
2022-12-18T23:50:49.851Z,23.67
2022-12-18T23:52:54.765Z,26.33
2022-12-18T23:54:59.691Z,23.95
2022-12-18T23:57:05.158Z,25.70
2022-12-18T23:59:09.779Z,25.45
